sensor_id;sensor_type;location;lat;lon;timestamp;P1;durP1;ratioP1;P2;durP2;ratioP2
52438;SDS011;38359;53.150;6.504;2022-08-19T00:01:31;8.45;;;7.75;;
52438;SDS011;38359;53.150;6.504;2022-08-19T00:03:59;7.88;;;7.07;;
52438;SDS011;38359;53.150;6.504;2022-08-19T00:06:30;8.52;;;7.63;;
52438;SDS011;38359;53.150;6.504;2022-08-19T00:08:56;10.32;;;7.60;;
52438;SDS011;38359;53.150;6.504;2022-08-19T00:11:23;10.27;;;8.38;;
52438;SDS011;38359;53.150;6.504;2022-08-19T00:13:50;9.85;;;8.02;;
52438;SDS011;38359;53.150;6.504;2022-08-19T00:16:19;9.93;;;8.32;;
52438;SDS011;38359;53.150;6.504;2022-08-19T00:18:46;10.55;;;8.05;;
52438;SDS011;38359;53.150;6.504;2022-08-19T00:21:13;9.80;;;8.77;;
52438;SDS011;38359;53.150;6.504;2022-08-19T00:23:40;10.02;;;8.07;;
52438;SDS011;38359;53.150;6.504;2022-08-19T00:26:07;8.98;;;8.07;;
52438;SDS011;38359;53.150;6.504;2022-08-19T00:28:34;12.30;;;8.45;;
52438;SDS011;38359;53.150;6.504;2022-08-19T00:31:01;9.75;;;8.52;;
52438;SDS011;38359;53.150;6.504;2022-08-19T00:33:32;9.63;;;8.73;;
52438;SDS011;38359;53.150;6.504;2022-08-19T00:35:58;13.32;;;8.63;;
52438;SDS011;38359;53.150;6.504;2022-08-19T00:38:25;9.40;;;8.50;;
52438;SDS011;38359;53.150;6.504;2022-08-19T00:40:51;11.13;;;8.75;;
52438;SDS011;38359;53.150;6.504;2022-08-19T00:43:18;9.25;;;7.90;;
52438;SDS011;38359;53.150;6.504;2022-08-19T00:45:48;8.90;;;8.07;;
52438;SDS011;38359;53.150;6.504;2022-08-19T00:48:15;12.30;;;8.88;;
52438;SDS011;38359;53.150;6.504;2022-08-19T00:50:43;10.40;;;9.27;;
52438;SDS011;38359;53.150;6.504;2022-08-19T00:53:11;9.68;;;7.97;;
52438;SDS011;38359;53.150;6.504;2022-08-19T00:55:40;10.63;;;9.48;;
52438;SDS011;38359;53.150;6.504;2022-08-19T00:58:12;10.43;;;8.70;;
52438;SDS011;38359;53.150;6.504;2022-08-19T01:00:42;9.55;;;8.65;;
52438;SDS011;38359;53.150;6.504;2022-08-19T01:03:09;9.52;;;8.63;;
52438;SDS011;38359;53.150;6.504;2022-08-19T01:05:39;8.65;;;7.78;;
52438;SDS011;38359;53.150;6.504;2022-08-19T01:08:08;9.55;;;8.65;;
52438;SDS011;38359;53.150;6.504;2022-08-19T01:10:37;8.35;;;7.53;;
52438;SDS011;38359;53.150;6.504;2022-08-19T01:13:10;9.38;;;7.93;;
52438;SDS011;38359;53.150;6.504;2022-08-19T01:15:40;9.60;;;8.63;;
52438;SDS011;38359;53.150;6.504;2022-08-19T01:18:13;8.45;;;7.55;;
52438;SDS011;38359;53.150;6.504;2022-08-19T01:20:41;9.02;;;8.07;;
52438;SDS011;38359;53.150;6.504;2022-08-19T01:23:08;10.00;;;8.23;;
52438;SDS011;38359;53.150;6.504;2022-08-19T01:25:36;10.43;;;8.75;;
52438;SDS011;38359;53.150;6.504;2022-08-19T01:28:19;9.60;;;8.60;;
52438;SDS011;38359;53.150;6.504;2022-08-19T01:30:50;8.98;;;7.07;;
52438;SDS011;38359;53.150;6.504;2022-08-19T01:33:19;13.00;;;9.07;;
52438;SDS011;38359;53.150;6.504;2022-08-19T01:35:45;10.40;;;8.05;;
52438;SDS011;38359;53.150;6.504;2022-08-19T01:38:25;9.45;;;8.43;;
52438;SDS011;38359;53.150;6.504;2022-08-19T01:40:51;10.07;;;8.25;;
52438;SDS011;38359;53.150;6.504;2022-08-19T01:43:17;10.20;;;8.48;;
52438;SDS011;38359;53.150;6.504;2022-08-19T01:45:44;9.98;;;8.35;;
52438;SDS011;38359;53.150;6.504;2022-08-19T01:48:10;10.07;;;8.32;;
52438;SDS011;38359;53.150;6.504;2022-08-19T01:50:37;11.38;;;7.00;;
52438;SDS011;38359;53.150;6.504;2022-08-19T01:53:04;11.48;;;7.68;;
52438;SDS011;38359;53.150;6.504;2022-08-19T01:55:36;9.95;;;7.88;;
52438;SDS011;38359;53.150;6.504;2022-08-19T01:58:05;10.43;;;7.90;;
52438;SDS011;38359;53.150;6.504;2022-08-19T02:00:33;12.30;;;8.00;;
52438;SDS011;38359;53.150;6.504;2022-08-19T02:02:59;10.32;;;8.35;;
52438;SDS011;38359;53.150;6.504;2022-08-19T02:05:26;11.13;;;9.55;;
52438;SDS011;38359;53.150;6.504;2022-08-19T02:07:54;10.30;;;9.30;;
52438;SDS011;38359;53.150;6.504;2022-08-19T02:10:21;10.23;;;8.80;;
52438;SDS011;38359;53.150;6.504;2022-08-19T02:12:48;9.82;;;8.52;;
52438;SDS011;38359;53.150;6.504;2022-08-19T02:15:15;9.73;;;8.52;;
52438;SDS011;38359;53.150;6.504;2022-08-19T02:17:43;12.50;;;9.35;;
52438;SDS011;38359;53.150;6.504;2022-08-19T02:20:09;14.00;;;8.98;;
52438;SDS011;38359;53.150;6.504;2022-08-19T02:22:38;10.82;;;8.68;;
52438;SDS011;38359;53.150;6.504;2022-08-19T02:25:07;12.25;;;8.55;;
52438;SDS011;38359;53.150;6.504;2022-08-19T02:27:38;11.18;;;9.00;;
52438;SDS011;38359;53.150;6.504;2022-08-19T02:30:06;10.48;;;8.13;;
52438;SDS011;38359;53.150;6.504;2022-08-19T02:32:36;9.57;;;8.30;;
52438;SDS011;38359;53.150;6.504;2022-08-19T02:35:02;9.00;;;8.07;;
52438;SDS011;38359;53.150;6.504;2022-08-19T02:37:28;9.75;;;7.78;;
52438;SDS011;38359;53.150;6.504;2022-08-19T02:40:12;8.88;;;7.95;;
52438;SDS011;38359;53.150;6.504;2022-08-19T02:42:38;8.95;;;8.05;;
52438;SDS011;38359;53.150;6.504;2022-08-19T02:45:05;10.60;;;7.93;;
52438;SDS011;38359;53.150;6.504;2022-08-19T02:47:32;7.88;;;7.07;;
52438;SDS011;38359;53.150;6.504;2022-08-19T02:50:00;8.75;;;7.80;;
52438;SDS011;38359;53.150;6.504;2022-08-19T02:52:26;8.10;;;7.30;;
52438;SDS011;38359;53.150;6.504;2022-08-19T02:54:53;9.05;;;7.63;;
52438;SDS011;38359;53.150;6.504;2022-08-19T02:57:22;13.25;;;7.97;;
52438;SDS011;38359;53.150;6.504;2022-08-19T02:59:49;9.55;;;8.05;;
52438;SDS011;38359;53.150;6.504;2022-08-19T03:02:15;8.95;;;8.05;;
52438;SDS011;38359;53.150;6.504;2022-08-19T03:04:41;12.40;;;8.65;;
52438;SDS011;38359;53.150;6.504;2022-08-19T03:07:08;9.13;;;7.68;;
52438;SDS011;38359;53.150;6.504;2022-08-19T03:09:36;11.70;;;8.52;;
52438;SDS011;38359;53.150;6.504;2022-08-19T03:12:03;13.57;;;8.65;;
52438;SDS011;38359;53.150;6.504;2022-08-19T03:14:30;12.75;;;9.70;;
52438;SDS011;38359;53.150;6.504;2022-08-19T03:16:57;12.18;;;10.75;;
52438;SDS011;38359;53.150;6.504;2022-08-19T03:19:24;14.02;;;10.73;;
52438;SDS011;38359;53.150;6.504;2022-08-19T03:21:50;11.68;;;9.32;;
52438;SDS011;38359;53.150;6.504;2022-08-19T03:24:17;12.23;;;10.38;;
52438;SDS011;38359;53.150;6.504;2022-08-19T03:26:46;11.93;;;9.65;;
52438;SDS011;38359;53.150;6.504;2022-08-19T03:29:19;11.05;;;9.23;;
52438;SDS011;38359;53.150;6.504;2022-08-19T03:31:45;12.40;;;10.43;;
52438;SDS011;38359;53.150;6.504;2022-08-19T03:34:11;14.30;;;10.48;;
52438;SDS011;38359;53.150;6.504;2022-08-19T03:36:40;11.57;;;9.55;;
52438;SDS011;38359;53.150;6.504;2022-08-19T03:39:06;11.70;;;10.43;;
52438;SDS011;38359;53.150;6.504;2022-08-19T03:41:36;14.48;;;12.25;;
52438;SDS011;38359;53.150;6.504;2022-08-19T03:44:05;14.10;;;11.20;;
52438;SDS011;38359;53.150;6.504;2022-08-19T03:46:33;11.45;;;10.25;;
52438;SDS011;38359;53.150;6.504;2022-08-19T03:49:02;13.55;;;9.07;;
52438;SDS011;38359;53.150;6.504;2022-08-19T03:51:33;12.38;;;9.25;;
52438;SDS011;38359;53.150;6.504;2022-08-19T03:54:04;12.13;;;10.70;;
52438;SDS011;38359;53.150;6.504;2022-08-19T03:56:36;15.45;;;12.77;;
52438;SDS011;38359;53.150;6.504;2022-08-19T03:59:04;13.40;;;11.07;;
52438;SDS011;38359;53.150;6.504;2022-08-19T04:01:34;11.02;;;9.35;;
52438;SDS011;38359;53.150;6.504;2022-08-19T04:04:00;11.77;;;8.95;;
52438;SDS011;38359;53.150;6.504;2022-08-19T04:06:31;12.15;;;9.93;;
52438;SDS011;38359;53.150;6.504;2022-08-19T04:09:01;13.68;;;8.93;;
52438;SDS011;38359;53.150;6.504;2022-08-19T04:11:34;8.15;;;6.90;;
52438;SDS011;38359;53.150;6.504;2022-08-19T04:14:14;8.60;;;6.82;;
52438;SDS011;38359;53.150;6.504;2022-08-19T04:16:44;8.65;;;6.75;;
52438;SDS011;38359;53.150;6.504;2022-08-19T04:19:13;8.00;;;6.60;;
52438;SDS011;38359;53.150;6.504;2022-08-19T04:21:42;11.35;;;7.80;;
52438;SDS011;38359;53.150;6.504;2022-08-19T04:24:11;7.70;;;7.00;;
52438;SDS011;38359;53.150;6.504;2022-08-19T04:26:38;7.00;;;6.30;;
52438;SDS011;38359;53.150;6.504;2022-08-19T04:29:09;7.57;;;5.68;;
52438;SDS011;38359;53.150;6.504;2022-08-19T04:31:39;8.07;;;5.45;;
52438;SDS011;38359;53.150;6.504;2022-08-19T04:34:07;6.00;;;4.82;;
52438;SDS011;38359;53.150;6.504;2022-08-19T04:36:38;4.53;;;4.13;;
52438;SDS011;38359;53.150;6.504;2022-08-19T04:39:11;4.68;;;4.28;;
52438;SDS011;38359;53.150;6.504;2022-08-19T04:41:40;6.40;;;4.13;;
52438;SDS011;38359;53.150;6.504;2022-08-19T04:44:25;4.63;;;4.22;;
52438;SDS011;38359;53.150;6.504;2022-08-19T04:46:55;5.97;;;4.45;;
52438;SDS011;38359;53.150;6.504;2022-08-19T04:49:22;6.35;;;4.35;;
52438;SDS011;38359;53.150;6.504;2022-08-19T04:51:49;5.57;;;4.43;;
52438;SDS011;38359;53.150;6.504;2022-08-19T04:54:19;6.90;;;4.40;;
52438;SDS011;38359;53.150;6.504;2022-08-19T04:56:47;6.57;;;3.80;;
52438;SDS011;38359;53.150;6.504;2022-08-19T04:59:15;6.40;;;3.97;;
52438;SDS011;38359;53.150;6.504;2022-08-19T05:01:43;5.93;;;4.28;;
52438;SDS011;38359;53.150;6.504;2022-08-19T05:04:14;7.07;;;6.38;;
52438;SDS011;38359;53.150;6.504;2022-08-19T05:06:44;6.05;;;5.20;;
52438;SDS011;38359;53.150;6.504;2022-08-19T05:09:12;7.15;;;5.75;;
52438;SDS011;38359;53.150;6.504;2022-08-19T05:11:39;11.23;;;9.25;;
52438;SDS011;38359;53.150;6.504;2022-08-19T05:14:06;13.57;;;10.95;;
52438;SDS011;38359;53.150;6.504;2022-08-19T05:16:33;13.07;;;11.27;;
52438;SDS011;38359;53.150;6.504;2022-08-19T05:18:59;14.65;;;11.52;;
52438;SDS011;38359;53.150;6.504;2022-08-19T05:21:44;15.20;;;10.95;;
52438;SDS011;38359;53.150;6.504;2022-08-19T05:24:30;15.80;;;11.70;;
52438;SDS011;38359;53.150;6.504;2022-08-19T05:26:59;15.73;;;11.65;;
52438;SDS011;38359;53.150;6.504;2022-08-19T05:29:27;13.65;;;11.50;;
52438;SDS011;38359;53.150;6.504;2022-08-19T05:31:56;17.27;;;12.38;;
52438;SDS011;38359;53.150;6.504;2022-08-19T05:34:24;17.83;;;14.27;;
52438;SDS011;38359;53.150;6.504;2022-08-19T05:36:52;16.88;;;12.93;;
52438;SDS011;38359;53.150;6.504;2022-08-19T05:39:22;15.52;;;13.10;;
52438;SDS011;38359;53.150;6.504;2022-08-19T05:41:53;16.13;;;12.63;;
52438;SDS011;38359;53.150;6.504;2022-08-19T05:44:25;15.05;;;13.07;;
52438;SDS011;38359;53.150;6.504;2022-08-19T05:47:00;18.90;;;13.18;;
52438;SDS011;38359;53.150;6.504;2022-08-19T05:49:30;16.70;;;13.85;;
52438;SDS011;38359;53.150;6.504;2022-08-19T05:51:57;18.45;;;14.40;;
52438;SDS011;38359;53.150;6.504;2022-08-19T05:54:24;17.33;;;14.50;;
52438;SDS011;38359;53.150;6.504;2022-08-19T05:56:50;19.70;;;15.30;;
52438;SDS011;38359;53.150;6.504;2022-08-19T05:59:17;19.83;;;14.77;;
52438;SDS011;38359;53.150;6.504;2022-08-19T06:01:46;17.52;;;14.27;;
52438;SDS011;38359;53.150;6.504;2022-08-19T06:04:17;16.73;;;14.25;;
52438;SDS011;38359;53.150;6.504;2022-08-19T06:06:48;20.30;;;16.20;;
52438;SDS011;38359;53.150;6.504;2022-08-19T06:09:19;17.75;;;14.90;;
52438;SDS011;38359;53.150;6.504;2022-08-19T06:11:48;21.55;;;16.17;;
52438;SDS011;38359;53.150;6.504;2022-08-19T06:14:24;19.77;;;16.40;;
52438;SDS011;38359;53.150;6.504;2022-08-19T06:16:55;20.75;;;16.50;;
52438;SDS011;38359;53.150;6.504;2022-08-19T06:19:24;21.70;;;17.30;;
52438;SDS011;38359;53.150;6.504;2022-08-19T06:21:50;21.38;;;16.98;;
52438;SDS011;38359;53.150;6.504;2022-08-19T06:24:19;20.05;;;17.77;;
52438;SDS011;38359;53.150;6.504;2022-08-19T06:26:49;22.83;;;17.10;;
52438;SDS011;38359;53.150;6.504;2022-08-19T06:29:18;18.35;;;16.30;;
52438;SDS011;38359;53.150;6.504;2022-08-19T06:31:47;19.08;;;16.45;;
52438;SDS011;38359;53.150;6.504;2022-08-19T06:34:16;21.58;;;15.95;;
52438;SDS011;38359;53.150;6.504;2022-08-19T06:36:51;19.13;;;16.38;;
52438;SDS011;38359;53.150;6.504;2022-08-19T06:39:23;20.08;;;15.98;;
52438;SDS011;38359;53.150;6.504;2022-08-19T06:41:53;17.65;;;15.25;;
52438;SDS011;38359;53.150;6.504;2022-08-19T06:44:22;18.48;;;15.45;;
52438;SDS011;38359;53.150;6.504;2022-08-19T06:46:51;17.50;;;15.27;;
52438;SDS011;38359;53.150;6.504;2022-08-19T06:49:18;16.17;;;14.43;;
52438;SDS011;38359;53.150;6.504;2022-08-19T06:51:45;18.35;;;15.02;;
52438;SDS011;38359;53.150;6.504;2022-08-19T06:54:16;17.80;;;15.57;;
52438;SDS011;38359;53.150;6.504;2022-08-19T06:56:43;18.88;;;14.23;;
52438;SDS011;38359;53.150;6.504;2022-08-19T06:59:12;16.60;;;14.70;;
52438;SDS011;38359;53.150;6.504;2022-08-19T07:01:47;15.77;;;14.07;;
52438;SDS011;38359;53.150;6.504;2022-08-19T07:04:18;16.58;;;14.30;;
52438;SDS011;38359;53.150;6.504;2022-08-19T07:06:47;17.40;;;14.20;;
52438;SDS011;38359;53.150;6.504;2022-08-19T07:09:16;19.05;;;13.93;;
52438;SDS011;38359;53.150;6.504;2022-08-19T07:11:47;15.93;;;13.82;;
52438;SDS011;38359;53.150;6.504;2022-08-19T07:14:16;20.70;;;13.73;;
52438;SDS011;38359;53.150;6.504;2022-08-19T07:16:45;18.23;;;13.65;;
52438;SDS011;38359;53.150;6.504;2022-08-19T07:19:13;15.60;;;14.00;;
52438;SDS011;38359;53.150;6.504;2022-08-19T07:21:39;15.20;;;13.70;;
52438;SDS011;38359;53.150;6.504;2022-08-19T07:24:07;15.07;;;13.50;;
52438;SDS011;38359;53.150;6.504;2022-08-19T07:26:37;15.43;;;13.73;;
52438;SDS011;38359;53.150;6.504;2022-08-19T07:29:05;15.10;;;13.60;;
52438;SDS011;38359;53.150;6.504;2022-08-19T07:31:32;19.05;;;14.27;;
52438;SDS011;38359;53.150;6.504;2022-08-19T07:34:06;15.15;;;13.60;;
52438;SDS011;38359;53.150;6.504;2022-08-19T07:36:38;14.52;;;13.05;;
52438;SDS011;38359;53.150;6.504;2022-08-19T07:39:07;14.85;;;12.25;;
52438;SDS011;38359;53.150;6.504;2022-08-19T07:41:46;14.73;;;13.30;;
52438;SDS011;38359;53.150;6.504;2022-08-19T07:44:13;13.77;;;12.38;;
52438;SDS011;38359;53.150;6.504;2022-08-19T07:46:41;15.85;;;12.55;;
52438;SDS011;38359;53.150;6.504;2022-08-19T07:49:10;12.68;;;11.55;;
52438;SDS011;38359;53.150;6.504;2022-08-19T07:51:42;13.43;;;12.13;;
52438;SDS011;38359;53.150;6.504;2022-08-19T07:54:09;13.40;;;12.07;;
52438;SDS011;38359;53.150;6.504;2022-08-19T07:56:36;14.93;;;13.27;;
52438;SDS011;38359;53.150;6.504;2022-08-19T07:59:03;14.35;;;12.00;;
52438;SDS011;38359;53.150;6.504;2022-08-19T08:01:30;17.48;;;12.68;;
52438;SDS011;38359;53.150;6.504;2022-08-19T08:03:56;15.18;;;12.25;;
52438;SDS011;38359;53.150;6.504;2022-08-19T08:06:42;14.65;;;13.15;;
52438;SDS011;38359;53.150;6.504;2022-08-19T08:09:31;14.18;;;12.68;;
52438;SDS011;38359;53.150;6.504;2022-08-19T08:12:02;16.27;;;12.95;;
52438;SDS011;38359;53.150;6.504;2022-08-19T08:14:45;13.45;;;12.05;;
52438;SDS011;38359;53.150;6.504;2022-08-19T08:17:15;14.70;;;13.20;;
52438;SDS011;38359;53.150;6.504;2022-08-19T08:19:42;16.45;;;14.75;;
52438;SDS011;38359;53.150;6.504;2022-08-19T08:22:10;14.82;;;13.50;;
52438;SDS011;38359;53.150;6.504;2022-08-19T08:25:00;13.90;;;12.55;;
52438;SDS011;38359;53.150;6.504;2022-08-19T08:27:30;14.05;;;12.32;;
52438;SDS011;38359;53.150;6.504;2022-08-19T08:29:56;14.30;;;12.90;;
52438;SDS011;38359;53.150;6.504;2022-08-19T08:32:22;13.98;;;12.55;;
52438;SDS011;38359;53.150;6.504;2022-08-19T08:34:48;13.00;;;11.70;;
52438;SDS011;38359;53.150;6.504;2022-08-19T08:37:14;12.80;;;11.50;;
52438;SDS011;38359;53.150;6.504;2022-08-19T08:39:40;12.90;;;11.32;;
52438;SDS011;38359;53.150;6.504;2022-08-19T08:44:47;12.65;;;11.35;;
52438;SDS011;38359;53.150;6.504;2022-08-19T08:47:29;13.70;;;11.98;;
52438;SDS011;38359;53.150;6.504;2022-08-19T08:50:07;12.55;;;11.38;;
52438;SDS011;38359;53.150;6.504;2022-08-19T08:52:42;13.00;;;11.80;;
52438;SDS011;38359;53.150;6.504;2022-08-19T08:55:15;12.60;;;11.45;;
52438;SDS011;38359;53.150;6.504;2022-08-19T09:00:21;15.63;;;12.73;;
52438;SDS011;38359;53.150;6.504;2022-08-19T09:02:59;13.82;;;12.43;;
52438;SDS011;38359;53.150;6.504;2022-08-19T09:06:12;13.68;;;12.27;;
52438;SDS011;38359;53.150;6.504;2022-08-19T09:11:15;13.13;;;11.88;;
52438;SDS011;38359;53.150;6.504;2022-08-19T09:17:10;14.23;;;12.77;;
52438;SDS011;38359;53.150;6.504;2022-08-19T09:19:48;12.88;;;11.65;;
52438;SDS011;38359;53.150;6.504;2022-08-19T09:22:17;12.02;;;10.95;;
52438;SDS011;38359;53.150;6.504;2022-08-19T09:24:46;13.43;;;11.57;;
52438;SDS011;38359;53.150;6.504;2022-08-19T09:27:14;13.95;;;12.65;;
52438;SDS011;38359;53.150;6.504;2022-08-19T09:29:40;13.70;;;12.40;;
52438;SDS011;38359;53.150;6.504;2022-08-19T09:32:05;13.48;;;12.13;;
52438;SDS011;38359;53.150;6.504;2022-08-19T09:34:31;13.38;;;12.07;;
52438;SDS011;38359;53.150;6.504;2022-08-19T09:36:58;13.90;;;12.70;;
52438;SDS011;38359;53.150;6.504;2022-08-19T09:39:25;13.55;;;12.25;;
52438;SDS011;38359;53.150;6.504;2022-08-19T09:41:51;12.52;;;11.32;;
52438;SDS011;38359;53.150;6.504;2022-08-19T09:44:18;13.80;;;12.38;;
52438;SDS011;38359;53.150;6.504;2022-08-19T09:46:45;13.52;;;12.15;;
52438;SDS011;38359;53.150;6.504;2022-08-19T09:49:16;13.57;;;12.23;;
52438;SDS011;38359;53.150;6.504;2022-08-19T09:51:44;12.77;;;11.48;;
52438;SDS011;38359;53.150;6.504;2022-08-19T09:54:10;14.63;;;13.18;;
52438;SDS011;38359;53.150;6.504;2022-08-19T09:56:36;13.27;;;11.65;;
52438;SDS011;38359;53.150;6.504;2022-08-19T09:59:02;13.50;;;12.30;;
52438;SDS011;38359;53.150;6.504;2022-08-19T10:01:29;13.57;;;12.27;;
52438;SDS011;38359;53.150;6.504;2022-08-19T10:03:57;14.82;;;11.45;;
52438;SDS011;38359;53.150;6.504;2022-08-19T10:06:25;14.15;;;12.50;;
52438;SDS011;38359;53.150;6.504;2022-08-19T10:08:55;12.95;;;11.63;;
52438;SDS011;38359;53.150;6.504;2022-08-19T10:11:21;12.75;;;11.45;;
52438;SDS011;38359;53.150;6.504;2022-08-19T10:13:47;15.27;;;13.73;;
52438;SDS011;38359;53.150;6.504;2022-08-19T10:16:15;13.77;;;12.35;;
52438;SDS011;38359;53.150;6.504;2022-08-19T10:18:47;14.32;;;11.95;;
52438;SDS011;38359;53.150;6.504;2022-08-19T10:21:21;11.57;;;10.38;;
52438;SDS011;38359;53.150;6.504;2022-08-19T10:23:55;12.20;;;10.90;;
52438;SDS011;38359;53.150;6.504;2022-08-19T10:26:27;13.07;;;11.70;;
52438;SDS011;38359;53.150;6.504;2022-08-19T10:29:02;12.82;;;11.63;;
52438;SDS011;38359;53.150;6.504;2022-08-19T10:31:30;10.85;;;9.85;;
52438;SDS011;38359;53.150;6.504;2022-08-19T10:33:58;12.38;;;11.27;;
52438;SDS011;38359;53.150;6.504;2022-08-19T10:36:26;14.55;;;13.02;;
52438;SDS011;38359;53.150;6.504;2022-08-19T10:38:59;19.08;;;12.98;;
52438;SDS011;38359;53.150;6.504;2022-08-19T10:41:29;13.65;;;12.45;;
52438;SDS011;38359;53.150;6.504;2022-08-19T10:44:02;14.05;;;12.35;;
52438;SDS011;38359;53.150;6.504;2022-08-19T10:46:39;13.82;;;12.60;;
52438;SDS011;38359;53.150;6.504;2022-08-19T10:49:07;16.05;;;14.48;;
52438;SDS011;38359;53.150;6.504;2022-08-19T10:51:36;16.52;;;14.50;;
52438;SDS011;38359;53.150;6.504;2022-08-19T10:54:22;14.07;;;12.77;;
52438;SDS011;38359;53.150;6.504;2022-08-19T10:56:48;15.63;;;14.13;;
52438;SDS011;38359;53.150;6.504;2022-08-19T10:59:17;15.70;;;12.93;;
52438;SDS011;38359;53.150;6.504;2022-08-19T11:01:49;15.77;;;14.37;;
52438;SDS011;38359;53.150;6.504;2022-08-19T11:04:16;14.85;;;13.02;;
52438;SDS011;38359;53.150;6.504;2022-08-19T11:06:44;15.38;;;13.27;;
52438;SDS011;38359;53.150;6.504;2022-08-19T11:09:16;13.73;;;12.25;;
52438;SDS011;38359;53.150;6.504;2022-08-19T11:11:49;12.23;;;11.13;;
52438;SDS011;38359;53.150;6.504;2022-08-19T11:14:16;12.75;;;11.63;;
52438;SDS011;38359;53.150;6.504;2022-08-19T11:16:44;11.82;;;10.57;;
52438;SDS011;38359;53.150;6.504;2022-08-19T11:19:11;12.02;;;10.98;;
52438;SDS011;38359;53.150;6.504;2022-08-19T11:21:40;13.27;;;12.05;;
52438;SDS011;38359;53.150;6.504;2022-08-19T11:24:11;12.93;;;11.82;;
52438;SDS011;38359;53.150;6.504;2022-08-19T11:26:41;11.82;;;10.73;;
52438;SDS011;38359;53.150;6.504;2022-08-19T11:29:09;12.05;;;10.95;;
52438;SDS011;38359;53.150;6.504;2022-08-19T11:31:39;12.55;;;11.38;;
52438;SDS011;38359;53.150;6.504;2022-08-19T11:34:08;10.90;;;9.90;;
52438;SDS011;38359;53.150;6.504;2022-08-19T11:36:38;12.73;;;11.43;;
52438;SDS011;38359;53.150;6.504;2022-08-19T11:39:07;14.30;;;13.00;;
52438;SDS011;38359;53.150;6.504;2022-08-19T11:41:36;13.40;;;12.00;;
52438;SDS011;38359;53.150;6.504;2022-08-19T11:44:02;12.90;;;11.60;;
52438;SDS011;38359;53.150;6.504;2022-08-19T11:46:29;10.88;;;9.90;;
52438;SDS011;38359;53.150;6.504;2022-08-19T11:48:57;10.75;;;9.82;;
52438;SDS011;38359;53.150;6.504;2022-08-19T11:51:24;10.30;;;9.30;;
52438;SDS011;38359;53.150;6.504;2022-08-19T11:53:52;14.80;;;11.27;;
52438;SDS011;38359;53.150;6.504;2022-08-19T11:56:19;19.42;;;11.13;;
52438;SDS011;38359;53.150;6.504;2022-08-19T11:58:47;11.10;;;9.95;;
52438;SDS011;38359;53.150;6.504;2022-08-19T12:01:14;11.10;;;8.57;;
52438;SDS011;38359;53.150;6.504;2022-08-19T12:03:43;10.45;;;9.38;;
52438;SDS011;38359;53.150;6.504;2022-08-19T12:06:12;10.43;;;9.35;;
52438;SDS011;38359;53.150;6.504;2022-08-19T12:08:41;11.95;;;10.70;;
52438;SDS011;38359;53.150;6.504;2022-08-19T12:11:09;10.73;;;9.65;;
52438;SDS011;38359;53.150;6.504;2022-08-19T12:13:37;13.63;;;9.18;;
52438;SDS011;38359;53.150;6.504;2022-08-19T12:16:07;10.52;;;8.10;;
52438;SDS011;38359;53.150;6.504;2022-08-19T12:18:37;10.85;;;8.85;;
52438;SDS011;38359;53.150;6.504;2022-08-19T12:21:07;8.90;;;7.65;;
52438;SDS011;38359;53.150;6.504;2022-08-19T12:23:35;9.05;;;7.90;;
52438;SDS011;38359;53.150;6.504;2022-08-19T12:26:02;8.38;;;7.57;;
52438;SDS011;38359;53.150;6.504;2022-08-19T12:28:28;9.30;;;8.38;;
52438;SDS011;38359;53.150;6.504;2022-08-19T12:30:55;11.02;;;9.90;;
52438;SDS011;38359;53.150;6.504;2022-08-19T12:33:22;9.60;;;8.60;;
52438;SDS011;38359;53.150;6.504;2022-08-19T12:35:50;11.48;;;8.65;;
52438;SDS011;38359;53.150;6.504;2022-08-19T12:38:16;10.48;;;9.25;;
52438;SDS011;38359;53.150;6.504;2022-08-19T12:40:46;10.80;;;8.68;;
52438;SDS011;38359;53.150;6.504;2022-08-19T12:43:13;9.27;;;8.35;;
52438;SDS011;38359;53.150;6.504;2022-08-19T12:45:40;8.52;;;7.65;;
52438;SDS011;38359;53.150;6.504;2022-08-19T12:48:10;10.40;;;7.80;;
52438;SDS011;38359;53.150;6.504;2022-08-19T12:50:38;8.52;;;7.72;;
52438;SDS011;38359;53.150;6.504;2022-08-19T12:53:05;9.10;;;7.38;;
52438;SDS011;38359;53.150;6.504;2022-08-19T12:55:31;13.32;;;9.00;;
52438;SDS011;38359;53.150;6.504;2022-08-19T12:57:57;12.73;;;11.18;;
52438;SDS011;38359;53.150;6.504;2022-08-19T13:00:23;10.40;;;8.50;;
52438;SDS011;38359;53.150;6.504;2022-08-19T13:02:50;10.20;;;8.27;;
52438;SDS011;38359;53.150;6.504;2022-08-19T13:05:21;11.63;;;8.30;;
52438;SDS011;38359;53.150;6.504;2022-08-19T13:07:52;13.45;;;8.85;;
52438;SDS011;38359;53.150;6.504;2022-08-19T13:10:21;11.80;;;8.32;;
52438;SDS011;38359;53.150;6.504;2022-08-19T13:12:53;10.93;;;9.70;;
52438;SDS011;38359;53.150;6.504;2022-08-19T13:15:20;11.57;;;10.38;;
52438;SDS011;38359;53.150;6.504;2022-08-19T13:17:49;14.52;;;11.68;;
52438;SDS011;38359;53.150;6.504;2022-08-19T13:20:18;17.77;;;14.02;;
52438;SDS011;38359;53.150;6.504;2022-08-19T13:22:45;22.80;;;15.73;;
52438;SDS011;38359;53.150;6.504;2022-08-19T13:25:13;17.45;;;14.13;;
52438;SDS011;38359;53.150;6.504;2022-08-19T13:27:42;20.30;;;14.55;;
52438;SDS011;38359;53.150;6.504;2022-08-19T13:30:09;22.00;;;13.95;;
52438;SDS011;38359;53.150;6.504;2022-08-19T13:32:56;15.10;;;12.43;;
52438;SDS011;38359;53.150;6.504;2022-08-19T13:35:39;13.40;;;11.45;;
52438;SDS011;38359;53.150;6.504;2022-08-19T13:38:18;11.23;;;10.07;;
52438;SDS011;38359;53.150;6.504;2022-08-19T13:40:46;11.73;;;9.48;;
52438;SDS011;38359;53.150;6.504;2022-08-19T13:43:14;16.50;;;12.00;;
52438;SDS011;38359;53.150;6.504;2022-08-19T13:45:41;12.77;;;9.93;;
52438;SDS011;38359;53.150;6.504;2022-08-19T13:48:07;13.93;;;10.77;;
52438;SDS011;38359;53.150;6.504;2022-08-19T13:50:34;14.25;;;10.35;;
52438;SDS011;38359;53.150;6.504;2022-08-19T13:53:06;14.40;;;9.68;;
52438;SDS011;38359;53.150;6.504;2022-08-19T13:55:35;9.93;;;8.93;;
52438;SDS011;38359;53.150;6.504;2022-08-19T13:58:03;11.38;;;10.18;;
52438;SDS011;38359;53.150;6.504;2022-08-19T14:00:31;14.68;;;10.00;;
52438;SDS011;38359;53.150;6.504;2022-08-19T14:03:01;15.10;;;11.57;;
52438;SDS011;38359;53.150;6.504;2022-08-19T14:05:28;15.68;;;11.30;;
52438;SDS011;38359;53.150;6.504;2022-08-19T14:07:55;19.52;;;11.88;;
52438;SDS011;38359;53.150;6.504;2022-08-19T14:10:25;16.13;;;13.15;;
52438;SDS011;38359;53.150;6.504;2022-08-19T14:12:56;16.52;;;12.82;;
52438;SDS011;38359;53.150;6.504;2022-08-19T14:15:25;18.30;;;13.90;;
52438;SDS011;38359;53.150;6.504;2022-08-19T14:17:52;16.30;;;13.20;;
52438;SDS011;38359;53.150;6.504;2022-08-19T14:20:18;16.50;;;14.70;;
52438;SDS011;38359;53.150;6.504;2022-08-19T14:22:45;22.80;;;13.52;;
52438;SDS011;38359;53.150;6.504;2022-08-19T14:25:17;16.00;;;13.15;;
52438;SDS011;38359;53.150;6.504;2022-08-19T14:27:49;20.38;;;14.85;;
52438;SDS011;38359;53.150;6.504;2022-08-19T14:30:17;20.90;;;14.20;;
52438;SDS011;38359;53.150;6.504;2022-08-19T14:32:47;18.60;;;14.82;;
52438;SDS011;38359;53.150;6.504;2022-08-19T14:35:14;19.55;;;15.88;;
52438;SDS011;38359;53.150;6.504;2022-08-19T14:37:41;19.23;;;14.43;;
52438;SDS011;38359;53.150;6.504;2022-08-19T14:40:09;19.30;;;14.90;;
52438;SDS011;38359;53.150;6.504;2022-08-19T14:42:36;18.35;;;15.52;;
52438;SDS011;38359;53.150;6.504;2022-08-19T14:45:03;18.02;;;13.55;;
52438;SDS011;38359;53.150;6.504;2022-08-19T14:47:32;15.60;;;12.70;;
52438;SDS011;38359;53.150;6.504;2022-08-19T14:49:58;15.70;;;12.10;;
52438;SDS011;38359;53.150;6.504;2022-08-19T14:52:24;17.33;;;12.00;;
52438;SDS011;38359;53.150;6.504;2022-08-19T14:54:50;12.27;;;10.48;;